createdAt,value
2023-02-21T00:02:23.865Z,29.00
2023-02-21T00:05:11.556Z,26.40
2023-02-21T00:07:57.810Z,21.40
2023-02-21T00:10:44.306Z,24.20
2023-02-21T00:13:31.483Z,26.25
2023-02-21T00:16:17.677Z,27.20
2023-02-21T00:19:04.384Z,21.00
2023-02-21T00:21:52.256Z,25.25
2023-02-21T00:24:38.721Z,21.40
2023-02-21T00:27:24.987Z,25.00
2023-02-21T00:30:11.591Z,24.25
2023-02-21T00:32:57.980Z,20.00
2023-02-21T00:35:44.215Z,20.20
2023-02-21T00:38:31.876Z,23.75
2023-02-21T00:41:18.161Z,23.25
2023-02-21T00:44:04.629Z,18.40
2023-02-21T00:46:50.965Z,20.00
2023-02-21T00:49:37.204Z,21.20
2023-02-21T00:52:23.772Z,20.00
2023-02-21T00:55:11.189Z,20.40
2023-02-21T00:57:57.424Z,21.20
2023-02-21T01:00:44.824Z,20.60
2023-02-21T01:03:31.243Z,21.20
2023-02-21T01:06:17.335Z,19.20
2023-02-21T01:09:05.240Z,20.00
2023-02-21T01:11:52.923Z,19.60
2023-02-21T01:14:39.428Z,19.00
2023-02-21T01:17:25.661Z,21.00
2023-02-21T01:20:12.163Z,21.40
2023-02-21T01:22:58.298Z,18.20
2023-02-21T01:25:44.448Z,22.00
2023-02-21T01:28:31.995Z,20.20
2023-02-21T01:31:18.286Z,21.20
2023-02-21T01:34:04.316Z,19.80
2023-02-21T01:36:50.767Z,21.80
2023-02-21T01:39:36.398Z,16.60
2023-02-21T01:42:23.098Z,20.20
2023-02-21T01:45:42.807Z,19.00
2023-02-21T01:48:34.717Z,21.00
2023-02-21T01:51:23.702Z,19.20
2023-02-21T01:54:10.361Z,22.20
2023-02-21T01:56:58.461Z,21.60
2023-02-21T01:59:45.494Z,20.60
2023-02-21T02:02:38.112Z,21.00
2023-02-21T02:05:29.180Z,20.20
2023-02-21T02:08:15.583Z,23.80
2023-02-21T02:11:04.021Z,16.80
2023-02-21T02:14:01.408Z,18.60
2023-02-21T02:16:41.914Z,18.80
2023-02-21T02:19:37.744Z,18.80
2023-02-21T02:22:42.110Z,17.80
2023-02-21T02:25:25.568Z,12.80
2023-02-21T02:28:27.114Z,18.20
2023-02-21T02:31:21.257Z,18.00
2023-02-21T02:34:25.385Z,19.00
2023-02-21T02:37:02.884Z,19.80
2023-02-21T02:39:41.497Z,13.80
2023-02-21T02:42:18.300Z,19.40
2023-02-21T02:44:54.579Z,16.80
2023-02-21T02:47:28.587Z,16.60
2023-02-21T02:50:00.554Z,16.80
2023-02-21T02:52:31.157Z,18.80
2023-02-21T02:55:02.575Z,16.40
2023-02-21T02:57:41.279Z,18.40
2023-02-21T03:00:11.865Z,15.40
2023-02-21T03:02:58.604Z,14.60
2023-02-21T03:05:49.333Z,17.40
2023-02-21T03:08:27.902Z,16.00
2023-02-21T03:11:08.953Z,15.20
2023-02-21T03:13:45.247Z,16.40
2023-02-21T03:16:19.003Z,12.60
2023-02-21T03:18:52.012Z,17.00
2023-02-21T03:21:28.434Z,17.40
2023-02-21T03:24:02.772Z,15.60
2023-02-21T03:26:36.910Z,16.00
2023-02-21T03:29:24.170Z,17.40
2023-02-21T03:31:57.787Z,18.60
2023-02-21T03:34:27.682Z,13.80
2023-02-21T03:36:57.388Z,14.60
2023-02-21T03:39:27.397Z,13.60
2023-02-21T03:41:56.824Z,16.20
2023-02-21T03:44:25.657Z,15.00
2023-02-21T03:46:54.688Z,15.60
2023-02-21T03:49:23.878Z,12.60
2023-02-21T03:51:52.834Z,13.80
2023-02-21T03:54:21.757Z,13.00
2023-02-21T03:56:55.297Z,13.60
2023-02-21T03:59:28.708Z,14.00
2023-02-21T04:01:58.145Z,13.40
2023-02-21T04:04:28.999Z,17.40
2023-02-21T04:07:13.432Z,14.00
2023-02-21T04:09:43.358Z,13.80
2023-02-21T04:12:21.306Z,12.80
2023-02-21T04:14:52.364Z,14.40
2023-02-21T04:17:21.960Z,13.80
2023-02-21T04:19:50.724Z,12.40
2023-02-21T04:22:19.795Z,14.40
2023-02-21T04:24:48.594Z,16.80
2023-02-21T04:27:20.500Z,14.20
2023-02-21T04:29:55.311Z,16.60
2023-02-21T04:32:24.415Z,15.00
2023-02-21T04:34:53.182Z,16.20
2023-02-21T04:37:22.355Z,13.20
2023-02-21T04:39:51.563Z,15.40
2023-02-21T04:42:21.952Z,16.80
2023-02-21T04:44:59.789Z,18.80
2023-02-21T04:47:30.517Z,15.00
2023-02-21T04:49:59.172Z,14.00
2023-02-21T04:52:28.101Z,14.80
2023-02-21T04:54:56.845Z,16.00
2023-02-21T04:57:27.128Z,15.20
2023-02-21T04:59:59.655Z,14.20
2023-02-21T05:02:29.363Z,14.20
2023-02-21T05:04:58.070Z,14.00
2023-02-21T05:07:26.943Z,11.40
2023-02-21T05:09:55.838Z,13.40
2023-02-21T05:12:26.068Z,13.60
2023-02-21T05:14:54.925Z,13.60
2023-02-21T05:17:23.949Z,1.00
2023-02-21T05:19:52.655Z,14.60
2023-02-21T05:22:21.911Z,12.60
2023-02-21T05:24:50.565Z,13.60
2023-02-21T05:27:22.232Z,17.40
2023-02-21T05:29:53.927Z,16.20
2023-02-21T05:32:24.261Z,13.00
2023-02-21T05:34:53.024Z,14.60
2023-02-21T05:37:22.177Z,35.25
2023-02-21T05:39:51.117Z,19.00
2023-02-21T05:42:20.113Z,19.60
2023-02-21T05:44:49.555Z,18.40
2023-02-21T05:47:19.936Z,22.00
2023-02-21T05:49:48.460Z,28.50
2023-02-21T05:52:19.128Z,26.75
2023-02-21T05:54:47.838Z,24.25
2023-02-21T05:57:16.668Z,25.25
2023-02-21T05:59:48.392Z,26.25
2023-02-21T06:02:17.714Z,31.50
2023-02-21T06:04:47.622Z,36.50
2023-02-21T06:07:16.772Z,36.00
2023-02-21T06:09:45.589Z,31.00
2023-02-21T06:12:14.525Z,32.75
2023-02-21T06:14:43.402Z,39.00
2023-02-21T06:17:12.252Z,39.25
2023-02-21T06:19:40.799Z,32.25
2023-02-21T06:22:11.074Z,39.75
2023-02-21T06:24:39.690Z,38.00
2023-02-21T06:27:08.759Z,35.25
2023-02-21T06:29:37.352Z,37.00
2023-02-21T06:32:06.728Z,35.50
2023-02-21T06:34:35.405Z,41.25
2023-02-21T06:37:04.454Z,42.00
2023-02-21T06:39:34.446Z,27.50
2023-02-21T06:42:03.356Z,38.75
2023-02-21T06:44:31.996Z,34.00
2023-02-21T06:47:00.950Z,36.00
2023-02-21T06:49:29.652Z,28.00
2023-02-21T06:51:58.577Z,32.50
2023-02-21T06:54:27.154Z,34.50
2023-02-21T06:56:57.564Z,23.00
2023-02-21T06:59:26.138Z,37.00
2023-02-21T07:01:55.024Z,49.25
2023-02-21T07:04:24.454Z,52.00
2023-02-21T07:06:53.947Z,61.00
2023-02-21T07:09:22.575Z,55.00
2023-02-21T07:11:51.850Z,50.75
2023-02-21T07:14:21.811Z,50.25
2023-02-21T07:16:51.122Z,45.25
2023-02-21T07:19:19.932Z,49.75
2023-02-21T07:21:49.374Z,41.00
2023-02-21T07:24:18.368Z,50.25
2023-02-21T07:26:47.351Z,53.25
2023-02-21T07:29:17.484Z,51.00
2023-02-21T07:31:47.979Z,50.25
2023-02-21T07:34:17.302Z,44.50
2023-02-21T07:36:46.205Z,43.25
2023-02-21T07:39:14.926Z,38.50
2023-02-21T07:41:44.040Z,34.00
2023-02-21T07:44:12.600Z,16.60
2023-02-21T07:46:43.118Z,19.60
2023-02-21T07:49:13.204Z,18.40
2023-02-21T07:51:42.100Z,18.00
2023-02-21T07:54:10.796Z,19.00
2023-02-21T07:56:45.035Z,21.00
2023-02-21T07:59:13.840Z,16.60
2023-02-21T08:01:42.936Z,18.60
2023-02-21T08:04:13.277Z,20.60
2023-02-21T08:06:42.245Z,20.00
2023-02-21T08:09:10.751Z,18.80
2023-02-21T08:11:40.471Z,21.80
2023-02-21T08:14:09.213Z,24.80
2023-02-21T08:16:38.206Z,18.40
2023-02-21T08:19:08.040Z,14.20
2023-02-21T08:21:38.242Z,22.00
2023-02-21T08:24:07.105Z,23.40
2023-02-21T08:26:36.299Z,22.20
2023-02-21T08:29:04.932Z,21.20
2023-02-21T08:31:36.607Z,13.40
2023-02-21T08:34:05.959Z,13.20
2023-02-21T08:36:35.337Z,13.00
2023-02-21T08:39:06.295Z,11.60
2023-02-21T08:41:38.953Z,13.80
2023-02-21T08:44:07.714Z,14.40
2023-02-21T08:46:37.088Z,0.40
2023-02-21T08:49:05.924Z,10.80
2023-02-21T08:51:35.454Z,12.80
2023-02-21T08:54:05.622Z,11.40
2023-02-21T08:56:35.537Z,20.60
2023-02-21T08:59:05.798Z,15.40
2023-02-21T09:01:36.694Z,19.60
2023-02-21T09:04:06.521Z,16.20
2023-02-21T09:06:35.487Z,16.00
2023-02-21T09:09:05.493Z,20.60
2023-02-21T09:11:34.382Z,21.80
2023-02-21T09:14:06.204Z,16.40
2023-02-21T09:16:34.820Z,19.80
2023-02-21T09:19:07.033Z,15.60
2023-02-21T09:21:36.095Z,18.80
2023-02-21T09:24:06.620Z,17.60
2023-02-21T09:26:35.146Z,20.00
2023-02-21T09:29:03.980Z,19.40
2023-02-21T09:31:32.641Z,22.20
2023-02-21T09:34:01.831Z,21.00
2023-02-21T09:36:30.336Z,21.40
2023-02-21T09:39:00.120Z,19.60
2023-02-21T09:41:30.216Z,21.00
2023-02-21T09:43:59.990Z,14.60
2023-02-21T09:46:36.074Z,20.60
2023-02-21T09:49:11.909Z,16.20
2023-02-21T09:51:43.904Z,15.20
2023-02-21T09:54:20.421Z,13.00
2023-02-21T09:56:50.931Z,16.80
2023-02-21T09:59:20.000Z,17.80
2023-02-21T10:02:00.954Z,18.20
2023-02-21T10:04:42.078Z,22.40
2023-02-21T10:07:17.988Z,18.80
2023-02-21T10:09:54.328Z,13.40
2023-02-21T10:12:31.827Z,18.80
2023-02-21T10:15:24.882Z,20.40
2023-02-21T10:18:01.249Z,21.20
2023-02-21T10:20:36.966Z,22.20
2023-02-21T10:23:15.981Z,23.00
2023-02-21T10:25:47.007Z,21.80
2023-02-21T10:28:21.737Z,19.80
2023-02-21T10:30:54.178Z,22.40
2023-02-21T10:33:22.945Z,17.40
2023-02-21T10:35:55.186Z,20.80
2023-02-21T10:38:27.382Z,25.00
2023-02-21T10:40:59.162Z,22.20
2023-02-21T10:43:35.631Z,20.00
2023-02-21T10:46:10.251Z,24.60
2023-02-21T10:48:40.618Z,23.40
2023-02-21T10:51:11.719Z,23.00
2023-02-21T10:53:41.843Z,19.60
2023-02-21T10:56:27.171Z,20.60
2023-02-21T10:59:00.905Z,22.20
2023-02-21T11:01:37.689Z,19.80
2023-02-21T11:04:08.721Z,20.00
2023-02-21T11:06:40.333Z,22.20
2023-02-21T11:09:40.279Z,22.80
2023-02-21T11:12:22.604Z,21.20
2023-02-21T11:15:20.214Z,23.20
2023-02-21T11:18:04.827Z,23.00
2023-02-21T11:20:33.633Z,20.00
2023-02-21T11:23:02.814Z,22.80
2023-02-21T11:25:33.456Z,26.00
2023-02-21T11:28:05.913Z,26.50
2023-02-21T11:30:38.582Z,25.40
2023-02-21T11:33:09.461Z,25.60
2023-02-21T11:35:45.537Z,22.00
2023-02-21T11:38:32.922Z,20.00
2023-02-21T11:41:02.051Z,19.20
2023-02-21T11:43:31.797Z,19.20
2023-02-21T11:46:17.170Z,18.80
2023-02-21T11:48:55.433Z,21.60
2023-02-21T11:51:45.161Z,18.80
2023-02-21T11:54:14.636Z,15.40
2023-02-21T11:56:52.927Z,15.80
2023-02-21T11:59:34.036Z,14.60
2023-02-21T12:02:26.376Z,17.80
2023-02-21T12:05:08.156Z,15.00
2023-02-21T12:07:46.194Z,14.20
2023-02-21T12:10:35.064Z,15.60
2023-02-21T12:13:14.158Z,24.25
2023-02-21T12:15:57.721Z,15.60
2023-02-21T12:18:49.844Z,18.80
2023-02-21T12:21:34.768Z,19.00
2023-02-21T12:24:14.102Z,17.20
2023-02-21T12:26:52.883Z,19.20
2023-02-21T12:29:37.743Z,19.20
2023-02-21T12:32:41.560Z,12.40
2023-02-21T12:35:37.874Z,15.60
2023-02-21T12:38:12.551Z,16.60
2023-02-21T12:40:52.058Z,16.00
2023-02-21T12:43:46.939Z,16.00
2023-02-21T12:46:26.407Z,16.80
2023-02-21T12:49:02.751Z,19.60
2023-02-21T12:51:37.755Z,12.00
2023-02-21T12:54:10.741Z,8.80
2023-02-21T12:56:45.538Z,25.00
2023-02-21T12:59:22.380Z,14.80
2023-02-21T13:01:54.718Z,17.00
2023-02-21T13:04:33.748Z,14.20
2023-02-21T13:07:11.256Z,15.40
2023-02-21T13:09:46.530Z,12.20
2023-02-21T13:12:19.116Z,11.00
2023-02-21T13:14:52.344Z,14.40
2023-02-21T13:17:21.303Z,12.60
2023-02-21T13:19:55.879Z,10.00
2023-02-21T13:23:19.972Z,13.40
2023-02-21T13:26:32.022Z,31.00
2023-02-21T13:29:01.599Z,12.40
2023-02-21T13:31:38.392Z,11.80
2023-02-21T13:34:10.282Z,10.00
2023-02-21T13:36:45.099Z,13.60
2023-02-21T13:39:17.177Z,13.80
2023-02-21T13:41:51.364Z,16.00
2023-02-21T13:44:26.453Z,12.80
2023-02-21T13:47:07.294Z,11.20
2023-02-21T13:49:43.078Z,10.60
2023-02-21T13:52:37.046Z,15.60
2023-02-21T13:55:27.483Z,10.00
2023-02-21T13:58:31.680Z,9.80
2023-02-21T14:01:25.192Z,10.00
2023-02-21T14:03:57.637Z,15.00
2023-02-21T14:06:38.235Z,13.60
2023-02-21T14:09:16.034Z,13.00
2023-02-21T14:11:50.119Z,15.20
2023-02-21T14:14:29.545Z,20.80
2023-02-21T14:17:04.082Z,21.60
2023-02-21T14:19:39.469Z,16.40
2023-02-21T14:22:15.830Z,14.00
2023-02-21T14:24:48.616Z,49.00
2023-02-21T14:27:39.128Z,20.00
2023-02-21T14:30:27.613Z,16.20
2023-02-21T14:33:01.165Z,13.80
2023-02-21T14:35:35.403Z,12.60
2023-02-21T14:38:06.166Z,16.80
2023-02-21T14:40:47.473Z,18.20
2023-02-21T14:43:43.942Z,15.20
2023-02-21T14:46:37.615Z,14.00
2023-02-21T14:49:39.314Z,20.40
2023-02-21T14:52:44.237Z,19.40
2023-02-21T14:55:32.656Z,20.00
2023-02-21T14:58:37.373Z,17.40
2023-02-21T15:01:16.214Z,20.80
2023-02-21T15:03:53.800Z,15.40
2023-02-21T15:06:23.858Z,13.80
2023-02-21T15:08:54.949Z,23.50
2023-02-21T15:11:28.886Z,19.00
2023-02-21T15:14:15.779Z,12.20
2023-02-21T15:16:47.783Z,17.60
2023-02-21T15:19:29.965Z,15.00
2023-02-21T15:22:24.491Z,12.20
2023-02-21T15:25:17.006Z,14.80
2023-02-21T15:27:58.170Z,16.40
2023-02-21T15:30:30.133Z,7.20
2023-02-21T15:33:03.781Z,15.80
2023-02-21T15:35:37.261Z,15.00
2023-02-21T15:38:12.411Z,19.80
2023-02-21T15:40:41.587Z,20.00
2023-02-21T15:43:23.736Z,17.80
2023-02-21T15:45:57.164Z,13.00
2023-02-21T15:48:25.999Z,13.60
2023-02-21T15:51:03.032Z,24.40
2023-02-21T15:53:32.545Z,20.00
2023-02-21T15:56:22.130Z,18.80
2023-02-21T15:59:10.976Z,20.20
2023-02-21T16:01:40.612Z,19.40
2023-02-21T16:04:21.143Z,17.60
2023-02-21T16:06:54.460Z,13.40
2023-02-21T16:09:30.526Z,18.40
2023-02-21T16:12:05.608Z,13.00
2023-02-21T16:14:40.341Z,35.50
2023-02-21T16:17:23.567Z,19.40
2023-02-21T16:19:56.151Z,22.40
2023-02-21T16:22:34.163Z,42.50
2023-02-21T16:25:18.629Z,54.75
2023-02-21T16:27:51.567Z,59.00
2023-02-21T16:30:23.060Z,75.75
2023-02-21T16:32:53.953Z,51.00
2023-02-21T16:35:24.632Z,38.50
2023-02-21T16:37:58.600Z,43.33
2023-02-21T16:40:29.268Z,33.00
2023-02-21T16:43:01.178Z,34.25
2023-02-21T16:45:30.734Z,37.25
2023-02-21T16:48:02.115Z,34.00
2023-02-21T16:50:33.478Z,25.50
2023-02-21T16:53:04.266Z,29.00
2023-02-21T16:55:32.922Z,35.00
2023-02-21T16:58:04.841Z,37.00
2023-02-21T17:00:34.261Z,33.25
2023-02-21T17:03:03.074Z,30.75
2023-02-21T17:05:31.600Z,32.00
2023-02-21T17:08:00.448Z,35.00
2023-02-21T17:10:32.213Z,27.75
2023-02-21T17:13:03.429Z,32.50
2023-02-21T17:15:32.971Z,34.25
2023-02-21T17:18:02.383Z,42.25
2023-02-21T17:20:31.679Z,36.25
2023-02-21T17:23:01.870Z,36.50
2023-02-21T17:25:34.129Z,34.75
2023-02-21T17:28:03.483Z,32.00
2023-02-21T17:30:32.518Z,33.75
2023-02-21T17:33:01.348Z,35.25
2023-02-21T17:35:30.051Z,2.25
2023-02-21T17:38:01.730Z,47.00
2023-02-21T17:40:31.970Z,51.50
2023-02-21T17:43:00.973Z,55.67
2023-02-21T17:45:29.661Z,55.00
2023-02-21T17:47:58.516Z,60.50
2023-02-21T17:50:27.065Z,68.00
2023-02-21T17:52:56.001Z,68.75
2023-02-21T17:55:28.956Z,55.00
2023-02-21T17:57:59.360Z,71.75
2023-02-21T18:00:30.486Z,74.00
2023-02-21T18:03:01.025Z,71.00
2023-02-21T18:05:30.412Z,76.75
2023-02-21T18:08:00.108Z,67.75
2023-02-21T18:10:29.069Z,59.75
2023-02-21T18:12:59.408Z,62.67
2023-02-21T18:15:29.309Z,63.75
2023-02-21T18:18:03.952Z,59.50
2023-02-21T18:20:33.078Z,61.25
2023-02-21T18:23:03.636Z,56.00
2023-02-21T18:25:32.321Z,57.00
2023-02-21T18:28:03.620Z,56.00
2023-02-21T18:30:32.185Z,53.67
2023-02-21T18:33:01.204Z,50.00
2023-02-21T18:35:29.735Z,53.75
2023-02-21T18:37:58.934Z,52.75
2023-02-21T18:40:34.426Z,50.25
2023-02-21T18:43:06.699Z,50.25
2023-02-21T18:45:35.925Z,52.00
2023-02-21T18:48:04.985Z,51.75
2023-02-21T18:50:33.627Z,51.25
2023-02-21T18:53:04.118Z,46.25
2023-02-21T18:55:32.805Z,48.25
2023-02-21T18:58:02.086Z,46.25
2023-02-21T19:00:34.001Z,49.00
2023-02-21T19:03:03.619Z,47.75
2023-02-21T19:05:32.211Z,51.50
2023-02-21T19:08:01.995Z,51.50
2023-02-21T19:10:31.386Z,50.50
2023-02-21T19:13:02.258Z,53.25
2023-02-21T19:15:33.118Z,53.50
2023-02-21T19:18:02.052Z,53.00
2023-02-21T19:20:30.734Z,51.00
2023-02-21T19:22:59.817Z,54.50
2023-02-21T19:25:29.604Z,61.67
2023-02-21T19:28:00.555Z,57.00
2023-02-21T19:30:32.917Z,76.00
2023-02-21T19:33:05.271Z,67.75
2023-02-21T19:35:35.601Z,61.25
2023-02-21T19:38:06.339Z,70.50
2023-02-21T19:40:35.686Z,62.50
2023-02-21T19:43:06.445Z,54.33
2023-02-21T19:45:35.155Z,60.25
2023-02-21T19:48:06.063Z,60.33
2023-02-21T19:50:36.154Z,57.00
2023-02-21T19:53:05.470Z,59.25
2023-02-21T19:55:34.373Z,64.50
2023-02-21T19:58:07.087Z,59.75
2023-02-21T20:00:35.983Z,63.25
2023-02-21T20:03:06.472Z,56.33
2023-02-21T20:05:35.245Z,57.00
2023-02-21T20:08:04.308Z,58.33
2023-02-21T20:10:32.864Z,58.00
2023-02-21T20:13:02.581Z,55.67
2023-02-21T20:15:31.197Z,64.75
2023-02-21T20:18:00.116Z,69.75
2023-02-21T20:20:30.636Z,70.25
2023-02-21T20:23:02.141Z,73.00
2023-02-21T20:25:30.717Z,73.25
2023-02-21T20:27:59.551Z,80.25
2023-02-21T20:30:28.410Z,62.50
2023-02-21T20:32:58.983Z,67.25
2023-02-21T20:35:29.772Z,62.00
2023-02-21T20:38:02.207Z,60.67
2023-02-21T20:40:30.913Z,60.33
2023-02-21T20:43:00.359Z,57.00
2023-02-21T20:45:28.952Z,58.33
2023-02-21T20:47:58.070Z,57.00
2023-02-21T20:50:26.608Z,56.00
2023-02-21T20:52:56.853Z,57.00
2023-02-21T20:55:25.792Z,56.33
2023-02-21T20:57:54.989Z,54.00
2023-02-21T21:00:24.533Z,55.25
2023-02-21T21:02:54.482Z,64.50
2023-02-21T21:05:23.257Z,70.75
2023-02-21T21:07:55.620Z,80.50
2023-02-21T21:10:26.173Z,70.50
2023-02-21T21:12:55.305Z,58.67
2023-02-21T21:15:23.834Z,58.00
2023-02-21T21:17:52.778Z,66.00
2023-02-21T21:20:24.634Z,94.00
2023-02-21T21:22:53.782Z,84.25
2023-02-21T21:25:22.893Z,69.00
2023-02-21T21:27:53.293Z,61.25
2023-02-21T21:30:23.546Z,67.00
2023-02-21T21:32:52.559Z,68.50
2023-02-21T21:35:22.151Z,72.00
2023-02-21T21:37:51.064Z,67.00
2023-02-21T21:40:24.142Z,73.00
2023-02-21T21:42:55.269Z,65.25
2023-02-21T21:45:26.063Z,67.75
2023-02-21T21:47:58.862Z,60.25
2023-02-21T21:50:28.229Z,55.33
2023-02-21T21:52:58.758Z,60.33
2023-02-21T21:55:29.042Z,59.00
2023-02-21T21:57:59.746Z,58.67
2023-02-21T22:00:30.810Z,57.00
2023-02-21T22:03:02.131Z,56.00
2023-02-21T22:05:32.999Z,55.00
2023-02-21T22:08:01.791Z,52.50
2023-02-21T22:10:30.911Z,51.75
2023-02-21T22:13:02.499Z,52.25
2023-02-21T22:15:31.297Z,49.00
2023-02-21T22:18:04.043Z,46.50
2023-02-21T22:20:32.632Z,44.50
2023-02-21T22:23:01.741Z,47.00
2023-02-21T22:25:32.130Z,37.50
2023-02-21T22:28:09.523Z,44.50
2023-02-21T22:30:39.311Z,46.50
2023-02-21T22:33:13.458Z,44.00
2023-02-21T22:35:42.716Z,43.75
2023-02-21T22:38:14.492Z,44.75
2023-02-21T22:40:43.880Z,38.75
2023-02-21T22:43:14.715Z,43.75
2023-02-21T22:45:49.919Z,42.75
2023-02-21T22:48:20.943Z,40.00
2023-02-21T22:50:50.402Z,37.00
2023-02-21T22:53:21.374Z,37.00
2023-02-21T22:55:52.173Z,36.25
2023-02-21T22:58:23.094Z,28.75
2023-02-21T23:00:53.711Z,38.50
2023-02-21T23:03:22.521Z,37.50
2023-02-21T23:05:52.537Z,35.00
2023-02-21T23:08:23.805Z,40.00
2023-02-21T23:10:52.365Z,37.50
2023-02-21T23:13:24.757Z,36.50
2023-02-21T23:15:55.990Z,36.00
2023-02-21T23:18:26.413Z,33.00
2023-02-21T23:20:57.270Z,30.75
2023-02-21T23:23:28.683Z,27.50
2023-02-21T23:25:59.508Z,31.25
2023-02-21T23:28:31.274Z,32.00
2023-02-21T23:30:59.914Z,32.50
2023-02-21T23:33:34.186Z,32.50
2023-02-21T23:36:04.764Z,31.25
2023-02-21T23:38:38.440Z,31.00
2023-02-21T23:41:09.002Z,31.25
2023-02-21T23:43:40.112Z,24.00
2023-02-21T23:46:09.266Z,23.60
2023-02-21T23:48:38.714Z,22.00
2023-02-21T23:51:08.246Z,21.80
2023-02-21T23:53:37.992Z,20.20
2023-02-21T23:56:07.121Z,22.00
2023-02-21T23:58:36.188Z,19.80
